Ferndale, WA

6:15 PM PST on December 22, 2014 (GMT -0800)
The Old Jeffcott Place | Change Station
CLOSE
Current Station
Personal Weather Station
Location: Ferndale, WA
Elevation: 106 ft
Nearby Weather Stations
Active Advisory: Coastal Flood Advisory Active Notice: Record Report

Elev 106 ft 48.86 °N, 122.59 °W | Updated 7 seconds ago

Mostly Cloudy
Mostly Cloudy
42.4 °F
Feels Like 42 °F
N
0.0
Wind Variable Wind from North
Gusts 1.8 mph

Today
High -- | Low -- °F
--% Chance of Precip.
Yesterday
High -- | Low -- °F
Precip. -- in
8:01 AM 4:16 PM
New Moon, 1% visible
Pressure 30.40 in
Visibility 10.0 miles
Clouds Clear
Windchill 42 °F
Dew Point 40 °F
Humidity 89%
Rainfall 0.00 in
Snow Depth Not available.
UV 0 out of 12
Pollen .50 out of 12
Air Quality Not available.
Flu Activity Not available.
METAR KBLI 230153Z 00000KT 10SM CLR 06/04 A3038 RMK AO2 SLP295 T00560039

More Conditions Fewer Conditions

Pressure 30.40 in
Visibility 10.0 miles
Clouds Clear
Windchill 42 °F
Dew Point 40 °F
Humidity 89%
Rainfall 0.00 in
Snow Depth Not available.
UV 0 out of 12
Pollen .50 out of 12
Air Quality Not available.
Flu Activity Not available.
METAR KBLI 230153Z 00000KT 10SM CLR 06/04 A3038 RMK AO2 SLP295 T00560039

More Conditions Fewer Conditions

10-Day Weather Forecast

Almanac

Astronomy

Dec. 22, 2014 Rise Set
Actual Time
Civil Twilight
Nautical Twilight
Astronomical Twilight
Moon
Length of Visible Light
Length of Day
Tomorrow will be .
, % of the Moon is Illuminated

Today's Extremes

State Highs State Lows

Community

WunderPhotos

Upload Photos

1,779,761 photos uploaded!

WunderBlogs® & News

Nearby

Air Quality

  Air Quality AQ Index Pollutant
Not available.

Snow Depth

Station Depth Elevation

Earthquake Activity

City Distance Mag. Time & Date
Minimum magnitude displayed is 2.5.

Coastal Water Temperatures

Place Temperature

Nearby Weather Stations